Time;durP1;ratioP1;P1;durP2;ratioP2;P2;SDS_P1;SDS_P2;PMS_P1;PMS_P2;Temp;Humidity;BMP_temperature;BMP_pressure;BME280_temperature;BME280_humidity;BME280_pressure;Samples;Min_cycle;Max_cycle;Signal;HPM_P1;HPM_P2
2023/09/16 00:02:17;;;;;;;;;;;16.80;59.10;;;;;;5071274;28;19913;-68
2023/09/16 00:04:43;;;;;;;;;;;16.80;59.20;;;;;;5054592;28;19964;-68
2023/09/16 00:07:08;;;;;;;;;;;16.80;59.20;;;;;;5065230;28;20402;-68
2023/09/16 00:09:34;;;;;;;;;;;16.80;59.30;;;;;;5062091;28;20382;-67
2023/09/16 00:12:00;;;;;;;;;;;16.80;59.30;;;;;;5071742;28;19909;-68
2023/09/16 00:14:25;;;;;;;;;;;16.80;59.40;;;;;;5068505;28;19920;-68
2023/09/16 00:16:52;;;;;;;;;;;16.80;59.50;;;;;;5065343;28;20291;-68
2023/09/16 00:19:19;;;;;;;;;;;16.80;59.50;;;;;;5072097;28;19916;-68
2023/09/16 00:21:45;;;;;;;;;;;16.80;59.60;;;;;;5073275;28;19912;-68
2023/09/16 00:24:11;;;;;;;;;;;16.80;59.70;;;;;;5073497;28;20379;-68
2023/09/16 00:26:39;;;;;;;;;;;16.80;59.80;;;;;;5067980;28;19913;-67
2023/09/16 00:29:04;;;;;;;;;;;16.90;60.00;;;;;;5053300;28;19912;-68
2023/09/16 00:31:30;;;;;;;;;;;17.10;60.00;;;;;;5060872;28;20396;-67
2023/09/16 00:33:55;;;;;;;;;;;17.20;60.10;;;;;;5073198;28;20006;-67
2023/09/16 00:36:21;;;;;;;;;;;17.30;60.10;;;;;;5072984;28;19913;-67
2023/09/16 00:38:46;;;;;;;;;;;17.30;60.10;;;;;;5073275;28;19916;-68
2023/09/16 00:41:12;;;;;;;;;;;17.50;60.10;;;;;;5069637;28;19958;-67
2023/09/16 00:43:38;;;;;;;;;;;17.50;60.10;;;;;;5073291;28;20343;-69
2023/09/16 00:46:04;;;;;;;;;;;17.60;60.00;;;;;;5066520;28;19916;-67
2023/09/16 00:48:29;;;;;;;;;;;17.70;60.10;;;;;;5073127;28;19920;-67
2023/09/16 00:50:55;;;;;;;;;;;17.80;60.10;;;;;;5072309;28;19917;-67
2023/09/16 00:53:21;;;;;;;;;;;17.80;60.10;;;;;;5073088;28;19962;-67
2023/09/16 00:55:47;;;;;;;;;;;17.90;60.20;;;;;;5070847;28;19924;-67
2023/09/16 00:58:13;;;;;;;;;;;17.90;60.10;;;;;;5072764;28;19973;-67
2023/09/16 01:00:39;;;;;;;;;;;18.00;60.10;;;;;;5072425;28;20004;-68
2023/09/16 01:03:06;;;;;;;;;;;18.00;60.00;;;;;;5067967;28;19979;-68
2023/09/16 01:05:32;;;;;;;;;;;18.10;60.10;;;;;;5053348;28;20750;-67
2023/09/16 01:07:58;;;;;;;;;;;18.10;60.00;;;;;;5072597;28;19916;-68
2023/09/16 01:10:23;;;;;;;;;;;18.10;60.00;;;;;;5071987;28;19913;-66
2023/09/16 01:12:53;;;;;;;;;;;18.10;60.00;;;;;;5072331;28;19953;-68
2023/09/16 01:15:20;;;;;;;;;;;18.20;60.00;;;;;;5072296;28;19913;-67
2023/09/16 01:17:53;;;;;;;;;;;18.20;60.00;;;;;;5072010;28;20362;-68
2023/09/16 01:20:20;;;;;;;;;;;18.20;60.10;;;;;;5072092;28;19919;-67
2023/09/16 01:22:47;;;;;;;;;;;18.30;60.10;;;;;;5071969;28;20236;-67
2023/09/16 01:25:13;;;;;;;;;;;18.30;60.10;;;;;;5071947;28;20328;-68
2023/09/16 01:27:38;;;;;;;;;;;18.40;60.10;;;;;;5072122;28;20275;-68
2023/09/16 01:30:05;;;;;;;;;;;18.40;60.10;;;;;;5071646;28;19917;-67
2023/09/16 01:32:34;;;;;;;;;;;18.50;60.10;;;;;;5071875;28;20327;-66
2023/09/16 01:35:04;;;;;;;;;;;18.50;60.10;;;;;;5071672;28;20391;-66
2023/09/16 01:37:30;;;;;;;;;;;18.60;60.10;;;;;;5071826;28;19913;-66
2023/09/16 01:39:56;;;;;;;;;;;18.60;60.00;;;;;;5071588;28;19916;-67
2023/09/16 01:42:22;;;;;;;;;;;18.60;60.00;;;;;;5068493;28;19938;-67
2023/09/16 01:44:48;;;;;;;;;;;18.60;59.90;;;;;;5070890;28;19913;-68
2023/09/16 01:47:14;;;;;;;;;;;18.60;59.90;;;;;;5066863;28;20283;-68
2023/09/16 01:49:39;;;;;;;;;;;18.60;60.00;;;;;;5072216;28;19912;-69
2023/09/16 01:52:05;;;;;;;;;;;18.60;60.00;;;;;;5060508;28;19913;-67
2023/09/16 01:54:30;;;;;;;;;;;18.60;60.10;;;;;;5051594;28;19917;-68
2023/09/16 01:56:56;;;;;;;;;;;18.60;60.10;;;;;;5067463;28;19921;-67
2023/09/16 01:59:21;;;;;;;;;;;18.70;60.10;;;;;;5071499;28;20294;-67
2023/09/16 02:01:47;;;;;;;;;;;18.70;60.20;;;;;;5071342;28;20284;-68
2023/09/16 02:04:12;;;;;;;;;;;18.70;60.30;;;;;;5071410;28;19916;-68
2023/09/16 02:06:38;;;;;;;;;;;18.70;60.30;;;;;;5071384;28;19917;-67
2023/09/16 02:09:04;;;;;;;;;;;18.70;60.30;;;;;;5071575;28;19909;-68
2023/09/16 02:11:31;;;;;;;;;;;18.80;60.30;;;;;;5071233;28;19967;-68
2023/09/16 02:13:57;;;;;;;;;;;18.80;60.30;;;;;;5069840;28;19909;-67
2023/09/16 02:16:23;;;;;;;;;;;18.90;60.30;;;;;;5071669;28;20376;-68
2023/09/16 02:18:48;;;;;;;;;;;19.00;60.30;;;;;;5071642;28;19912;-68
2023/09/16 02:21:15;;;;;;;;;;;19.00;60.30;;;;;;5071406;28;19909;-68
2023/09/16 02:23:40;;;;;;;;;;;19.10;60.30;;;;;;5071502;28;19924;-68
2023/09/16 02:26:06;;;;;;;;;;;19.20;60.30;;;;;;5071358;28;19909;-67
2023/09/16 02:28:31;;;;;;;;;;;19.20;60.30;;;;;;5071414;28;20372;-67
2023/09/16 02:30:57;;;;;;;;;;;19.20;60.30;;;;;;5071252;28;20068;-68
2023/09/16 02:33:22;;;;;;;;;;;19.30;60.30;;;;;;5071295;28;20429;-67
2023/09/16 02:35:48;;;;;;;;;;;19.30;60.20;;;;;;5071273;28;20434;-66
2023/09/16 02:38:13;;;;;;;;;;;19.30;60.10;;;;;;5070926;28;19967;-68
2023/09/16 02:40:40;;;;;;;;;;;19.40;60.10;;;;;;5066843;28;20328;-67
2023/09/16 02:43:06;;;;;;;;;;;19.40;60.10;;;;;;5067403;28;19927;-66
2023/09/16 02:45:31;;;;;;;;;;;19.40;60.10;;;;;;5064826;28;19909;-68
2023/09/16 02:47:57;;;;;;;;;;;19.50;60.10;;;;;;5066426;28;19923;-68
2023/09/16 02:50:22;;;;;;;;;;;19.50;60.10;;;;;;5071746;28;20004;-68
2023/09/16 02:52:48;;;;;;;;;;;19.50;60.10;;;;;;5068119;28;19952;-67
2023/09/16 02:55:15;;;;;;;;;;;19.60;60.00;;;;;;5070775;28;19913;-67
2023/09/16 02:57:40;;;;;;;;;;;19.60;60.00;;;;;;5070878;28;19925;-67
2023/09/16 03:00:07;;;;;;;;;;;19.70;60.00;;;;;;5071310;28;19917;-67
2023/09/16 03:02:32;;;;;;;;;;;19.70;60.00;;;;;;5070479;28;19928;-67
2023/09/16 03:04:58;;;;;;;;;;;19.70;60.00;;;;;;5070953;28;19924;-67
2023/09/16 03:07:23;;;;;;;;;;;19.80;60.00;;;;;;5072142;28;19942;-68
2023/09/16 03:09:49;;;;;;;;;;;19.80;60.00;;;;;;5075184;28;20356;-68
2023/09/16 03:12:14;;;;;;;;;;;19.80;60.00;;;;;;5072694;28;20565;-67
2023/09/16 03:14:40;;;;;;;;;;;19.80;60.00;;;;;;5074681;28;19912;-68
2023/09/16 03:17:06;;;;;;;;;;;19.80;60.00;;;;;;5073319;28;20320;-67
2023/09/16 03:19:31;;;;;;;;;;;19.80;60.00;;;;;;5075060;28;20364;-68
2023/09/16 03:21:57;;;;;;;;;;;19.80;60.00;;;;;;5074429;28;20393;-68
2023/09/16 03:24:22;;;;;;;;;;;19.90;59.90;;;;;;5074440;28;19916;-67
2023/09/16 03:26:48;;;;;;;;;;;19.90;60.00;;;;;;5074371;28;20275;-68
2023/09/16 03:29:13;;;;;;;;;;;19.90;60.00;;;;;;5073986;28;20272;-68
2023/09/16 03:31:39;;;;;;;;;;;19.90;59.90;;;;;;5074469;28;19912;-68
2023/09/16 03:34:04;;;;;;;;;;;19.90;59.90;;;;;;5073721;28;20432;-68
2023/09/16 03:36:30;;;;;;;;;;;20.00;59.90;;;;;;5074771;28;19913;-67
2023/09/16 03:38:55;;;;;;;;;;;20.00;59.90;;;;;;5074048;28;20372;-67
2023/09/16 03:41:21;;;;;;;;;;;20.00;59.90;;;;;;5063843;28;19920;-68
2023/09/16 03:43:47;;;;;;;;;;;20.00;59.90;;;;;;5053651;28;19913;-67
2023/09/16 03:46:12;;;;;;;;;;;20.00;59.90;;;;;;5059930;28;20353;-67
2023/09/16 03:48:38;;;;;;;;;;;20.00;59.90;;;;;;5054069;28;19912;-67
2023/09/16 03:51:06;;;;;;;;;;;20.00;59.90;;;;;;5068609;28;20345;-67
2023/09/16 03:53:33;;;;;;;;;;;20.00;59.90;;;;;;5054221;28;19913;-67
2023/09/16 03:55:58;;;;;;;;;;;20.10;59.90;;;;;;5069844;28;20450;-67
2023/09/16 03:58:23;;;;;;;;;;;20.10;59.90;;;;;;5073970;28;20363;-67
2023/09/16 04:00:49;;;;;;;;;;;20.10;59.90;;;;;;5072563;28;19943;-67
2023/09/16 04:03:14;;;;;;;;;;;20.10;59.90;;;;;;5073741;28;20375;-67
2023/09/16 04:05:40;;;;;;;;;;;20.10;59.90;;;;;;5072333;28;20007;-67
2023/09/16 04:08:05;;;;;;;;;;;20.10;60.00;;;;;;5073683;28;20287;-68
2023/09/16 04:10:31;;;;;;;;;;;20.10;60.00;;;;;;5073917;28;19916;-67
2023/09/16 04:12:56;;;;;;;;;;;20.10;59.90;;;;;;5073216;28;20375;-68
2023/09/16 04:15:21;;;;;;;;;;;20.00;59.90;;;;;;5073523;28;19912;-67
2023/09/16 04:17:48;;;;;;;;;;;20.00;59.90;;;;;;5073399;28;20011;-67
2023/09/16 04:20:14;;;;;;;;;;;20.00;59.90;;;;;;5072794;28;20281;-67
2023/09/16 04:22:39;;;;;;;;;;;20.00;59.90;;;;;;5073910;28;19913;-68
2023/09/16 04:25:05;;;;;;;;;;;20.00;59.90;;;;;;5072987;28;20378;-66
2023/09/16 04:27:31;;;;;;;;;;;19.90;60.00;;;;;;5072129;28;19913;-68
2023/09/16 04:29:56;;;;;;;;;;;19.90;60.00;;;;;;5073243;28;20387;-67
2023/09/16 04:32:21;;;;;;;;;;;20.00;60.00;;;;;;5073329;28;19994;-67
2023/09/16 04:34:47;;;;;;;;;;;19.90;60.00;;;;;;5073077;28;19912;-68
2023/09/16 04:37:13;;;;;;;;;;;19.90;60.00;;;;;;5073342;28;19916;-67
2023/09/16 04:39:39;;;;;;;;;;;19.90;59.90;;;;;;5073083;28;20270;-67
2023/09/16 04:42:04;;;;;;;;;;;19.80;59.90;;;;;;5056108;28;20424;-67
2023/09/16 04:44:30;;;;;;;;;;;19.80;59.90;;;;;;5056394;28;19912;-66
2023/09/16 04:46:55;;;;;;;;;;;19.80;59.90;;;;;;5054673;28;19913;-66
2023/09/16 04:49:21;;;;;;;;;;;19.70;60.00;;;;;;5055515;28;19912;-68
2023/09/16 04:51:47;;;;;;;;;;;19.70;60.20;;;;;;5064637;28;19913;-67
2023/09/16 04:54:12;;;;;;;;;;;19.70;60.30;;;;;;5053410;28;20011;-68
2023/09/16 04:56:37;;;;;;;;;;;19.60;60.40;;;;;;5072728;28;19924;-67
2023/09/16 04:59:03;;;;;;;;;;;19.60;60.40;;;;;;5071103;28;19920;-67
2023/09/16 05:01:29;;;;;;;;;;;19.60;60.50;;;;;;5072578;28;19916;-67
2023/09/16 05:03:55;;;;;;;;;;;19.70;60.50;;;;;;5071831;28;19956;-68
2023/09/16 05:06:20;;;;;;;;;;;19.70;60.50;;;;;;5072983;28;20265;-67
2023/09/16 05:08:45;;;;;;;;;;;19.70;60.50;;;;;;5051062;28;19913;-67
2023/09/16 05:11:11;;;;;;;;;;;19.80;60.60;;;;;;5065235;28;20019;-67
2023/09/16 05:13:36;;;;;;;;;;;19.80;60.70;;;;;;5068673;28;19917;-68
2023/09/16 05:16:03;;;;;;;;;;;19.90;60.80;;;;;;5070607;28;19917;-67
2023/09/16 05:18:29;;;;;;;;;;;20.10;60.90;;;;;;5067851;28;19924;-67
2023/09/16 05:20:57;;;;;;;;;;;20.30;60.90;;;;;;5068156;28;19912;-67
2023/09/16 05:23:23;;;;;;;;;;;20.30;60.80;;;;;;5072277;28;19977;-66
2023/09/16 05:25:49;;;;;;;;;;;20.40;60.60;;;;;;5071688;28;20007;-67
2023/09/16 05:28:14;;;;;;;;;;;20.50;60.50;;;;;;5070753;28;19917;-67
2023/09/16 05:30:42;;;;;;;;;;;20.50;60.40;;;;;;5067776;28;19912;-67
2023/09/16 05:33:10;;;;;;;;;;;20.50;60.30;;;;;;5051937;28;19928;-68
2023/09/16 05:35:37;;;;;;;;;;;20.60;60.30;;;;;;5063319;28;19908;-67
2023/09/16 05:38:03;;;;;;;;;;;20.70;60.20;;;;;;5072095;28;20027;-67
2023/09/16 05:40:28;;;;;;;;;;;20.70;60.20;;;;;;5068963;28;19976;-67
2023/09/16 05:42:54;;;;;;;;;;;20.70;60.20;;;;;;5053948;28;19920;-68
2023/09/16 05:45:19;;;;;;;;;;;20.80;60.10;;;;;;5066204;28;19916;-67
2023/09/16 05:47:51;;;;;;;;;;;20.80;60.10;;;;;;5051717;28;19913;-68
2023/09/16 05:50:17;;;;;;;;;;;20.90;60.00;;;;;;5062101;28;19955;-67
2023/09/16 05:52:43;;;;;;;;;;;21.00;60.00;;;;;;5071699;28;19919;-68
2023/09/16 05:55:09;;;;;;;;;;;21.10;59.90;;;;;;5071106;28;19917;-69
2023/09/16 05:57:34;;;;;;;;;;;21.20;59.90;;;;;;5070434;28;20045;-68
2023/09/16 06:00:00;;;;;;;;;;;21.20;59.80;;;;;;5071638;28;20405;-68
2023/09/16 06:02:27;;;;;;;;;;;21.30;59.80;;;;;;5071102;28;21288;-68
2023/09/16 06:04:53;;;;;;;;;;;21.40;59.70;;;;;;5064282;28;20004;-68
2023/09/16 06:07:18;;;;;;;;;;;21.50;59.60;;;;;;5059856;28;19917;-68
2023/09/16 06:09:44;;;;;;;;;;;21.60;59.50;;;;;;5057114;28;19917;-69
2023/09/16 06:12:09;;;;;;;;;;;21.60;59.20;;;;;;5066731;28;19917;-69
2023/09/16 06:14:35;;;;;;;;;;;21.70;59.20;;;;;;5054190;28;19916;-69
2023/09/16 06:17:01;;;;;;;;;;;21.80;59.20;;;;;;5070775;28;19912;-68
2023/09/16 06:19:27;;;;;;;;;;;21.80;59.10;;;;;;5066106;28;19924;-68
2023/09/16 06:24:56;;;;;;;;;;;22.00;58.70;;;;;;5053379;28;20306;-68
2023/09/16 06:32:32;;;;;;;;;;;22.30;58.50;;;;;;5474056;22;19936;-67
2023/09/16 06:34:57;;;;;;;;;;;22.50;58.40;;;;;;5020466;28;19918;-70
2023/09/16 06:37:23;;;;;;;;;;;22.70;58.60;;;;;;5023124;28;19920;-68
2023/09/16 06:39:48;;;;;;;;;;;22.80;58.20;;;;;;5005565;28;20411;-69
2023/09/16 06:42:14;;;;;;;;;;;23.00;57.90;;;;;;5018170;28;19913;-68
2023/09/16 06:44:39;;;;;;;;;;;23.10;57.10;;;;;;4985578;28;19921;-68
2023/09/16 06:47:05;;;;;;;;;;;23.20;57.00;;;;;;5012819;28;20382;-69
2023/09/16 06:49:30;;;;;;;;;;;23.40;57.00;;;;;;5015505;28;19952;-69
2023/09/16 06:51:56;;;;;;;;;;;23.60;56.70;;;;;;5020763;28;20384;-68
2023/09/16 06:54:21;;;;;;;;;;;23.80;56.80;;;;;;5011499;28;20327;-69
2023/09/16 06:56:47;;;;;;;;;;;24.10;57.10;;;;;;5015113;28;19948;-68
2023/09/16 06:59:12;;;;;;;;;;;24.50;56.40;;;;;;5015777;28;19921;-68
2023/09/16 07:01:38;;;;;;;;;;;24.80;55.50;;;;;;5015598;28;20098;-68
2023/09/16 07:04:03;;;;;;;;;;;25.00;54.90;;;;;;5015784;28;19913;-68
2023/09/16 07:06:29;;;;;;;;;;;25.20;54.40;;;;;;5014841;28;20048;-68
2023/09/16 07:08:54;;;;;;;;;;;25.60;54.90;;;;;;5015454;28;19910;-69
2023/09/16 07:11:20;;;;;;;;;;;26.10;54.60;;;;;;5014976;28;19918;-72
2023/09/16 07:13:45;;;;;;;;;;;26.70;54.50;;;;;;5011667;28;19917;-69
2023/09/16 07:16:11;;;;;;;;;;;27.40;53.00;;;;;;5014682;28;19922;-68
2023/09/16 07:18:37;;;;;;;;;;;28.00;52.20;;;;;;5014812;28;19945;-69
2023/09/16 07:21:02;;;;;;;;;;;28.70;51.10;;;;;;5013248;28;20035;-69
2023/09/16 07:23:28;;;;;;;;;;;29.30;50.10;;;;;;5010570;28;19913;-69
2023/09/16 07:25:54;;;;;;;;;;;29.90;48.60;;;;;;5014135;28;19914;-69
2023/09/16 07:28:20;;;;;;;;;;;30.40;47.30;;;;;;5014964;28;19917;-69
2023/09/16 07:30:45;;;;;;;;;;;30.90;46.10;;;;;;5014512;28;19918;-69
2023/09/16 07:33:10;;;;;;;;;;;31.30;44.30;;;;;;5010196;28;19918;-69
2023/09/16 07:35:36;;;;;;;;;;;31.80;43.00;;;;;;5013638;28;19924;-70
2023/09/16 07:38:02;;;;;;;;;;;32.20;42.40;;;;;;5014278;28;19936;-70
2023/09/16 07:40:27;;;;;;;;;;;32.50;41.10;;;;;;5014050;28;20408;-69
2023/09/16 07:42:53;;;;;;;;;;;32.90;40.30;;;;;;5009511;28;19914;-70
2023/09/16 07:45:18;;;;;;;;;;;33.20;39.70;;;;;;5014414;28;19917;-68
2023/09/16 07:47:44;;;;;;;;;;;33.50;38.90;;;;;;5014471;28;20312;-69
2023/09/16 07:50:09;;;;;;;;;;;33.90;38.70;;;;;;5013839;28;19972;-69
2023/09/16 07:52:34;;;;;;;;;;;34.30;38.20;;;;;;5016947;28;20266;-69
2023/09/16 07:55:00;;;;;;;;;;;34.70;37.50;;;;;;5015899;28;19970;-70
2023/09/16 07:57:28;;;;;;;;;;;35.00;36.10;;;;;;5013588;28;19963;-70
2023/09/16 07:59:54;;;;;;;;;;;35.30;35.70;;;;;;5014240;28;19925;-70
2023/09/16 08:02:19;;;;;;;;;;;35.60;35.30;;;;;;5012780;28;20262;-70
2023/09/16 08:04:45;;;;;;;;;;;35.80;35.00;;;;;;5011151;28;20030;-69
2023/09/16 08:07:11;;;;;;;;;;;36.20;34.40;;;;;;5013540;28;19936;-69
2023/09/16 08:09:36;;;;;;;;;;;36.50;33.70;;;;;;5015425;28;19917;-69
2023/09/16 08:12:01;;;;;;;;;;;36.70;32.70;;;;;;5012729;28;20353;-69
2023/09/16 08:14:27;;;;;;;;;;;36.90;32.90;;;;;;5013149;28;20258;-70
2023/09/16 08:16:56;;;;;;;;;;;37.20;32.00;;;;;;5023369;28;19913;-68
2023/09/16 08:19:22;;;;;;;;;;;37.30;31.20;;;;;;5025209;28;20300;-68
2023/09/16 08:21:48;;;;;;;;;;;37.50;31.10;;;;;;5020423;28;19909;-69
2023/09/16 08:24:14;;;;;;;;;;;37.50;30.00;;;;;;5008999;28;20275;-69
2023/09/16 08:26:39;;;;;;;;;;;37.70;29.90;;;;;;5013182;28;20016;-69
2023/09/16 08:29:05;;;;;;;;;;;37.80;29.40;;;;;;5016994;28;19983;-69
2023/09/16 08:31:30;;;;;;;;;;;37.80;29.10;;;;;;5013822;28;19913;-68
2023/09/16 08:33:59;;;;;;;;;;;38.00;29.20;;;;;;5008413;28;20312;-68
2023/09/16 08:36:24;;;;;;;;;;;37.90;28.30;;;;;;5013372;28;19917;-68
2023/09/16 08:38:50;;;;;;;;;;;37.90;28.20;;;;;;5013179;28;20287;-68
2023/09/16 08:41:22;;;;;;;;;;;37.80;28.00;;;;;;5013250;28;20018;-68
2023/09/16 08:43:50;;;;;;;;;;;37.80;27.90;;;;;;5005059;28;20431;-68
2023/09/16 08:46:17;;;;;;;;;;;37.90;28.00;;;;;;5012552;28;19913;-68
2023/09/16 08:48:45;;;;;;;;;;;38.10;28.30;;;;;;5012810;28;19921;-68
2023/09/16 08:51:11;;;;;;;;;;;38.20;27.40;;;;;;5013020;28;19917;-68
2023/09/16 08:53:37;;;;;;;;;;;38.10;27.70;;;;;;5007866;28;20415;-69
2023/09/16 08:56:04;;;;;;;;;;;38.10;27.60;;;;;;5012329;28;19932;-70
2023/09/16 08:58:32;;;;;;;;;;;38.30;27.90;;;;;;5017152;28;19921;-70
2023/09/16 09:00:58;;;;;;;;;;;38.30;27.40;;;;;;5013002;28;19913;-69
2023/09/16 09:03:23;;;;;;;;;;;38.30;27.60;;;;;;5011688;28;19921;-71
2023/09/16 09:05:49;;;;;;;;;;;38.50;27.60;;;;;;5029126;28;19976;-71
2023/09/16 09:08:14;;;;;;;;;;;38.80;27.80;;;;;;5030844;28;19920;-71
2023/09/16 09:10:40;;;;;;;;;;;39.00;27.50;;;;;;5028390;28;19917;-71
2023/09/16 09:13:06;;;;;;;;;;;39.20;27.70;;;;;;5013663;28;19918;-71
2023/09/16 09:15:32;;;;;;;;;;;39.30;27.10;;;;;;5015652;28;19918;-71
2023/09/16 09:17:58;;;;;;;;;;;39.30;27.00;;;;;;5020042;28;19913;-71
2023/09/16 09:20:26;;;;;;;;;;;39.40;26.50;;;;;;5022090;28;19975;-70
2023/09/16 09:22:52;;;;;;;;;;;39.30;26.80;;;;;;5011631;28;20107;-70
2023/09/16 09:25:21;;;;;;;;;;;39.50;27.00;;;;;;5016467;28;20015;-70
2023/09/16 09:27:47;;;;;;;;;;;39.70;27.00;;;;;;5017629;28;19964;-70
2023/09/16 09:30:13;;;;;;;;;;;40.00;26.90;;;;;;5015674;28;20340;-70
2023/09/16 09:32:42;;;;;;;;;;;40.10;26.80;;;;;;5007835;28;19921;-70
2023/09/16 09:35:08;;;;;;;;;;;40.20;26.60;;;;;;5017889;28;20236;-70
2023/09/16 09:37:33;;;;;;;;;;;40.20;26.40;;;;;;5017128;28;19960;-70
2023/09/16 09:40:09;;;;;;;;;;;40.30;26.30;;;;;;5016720;28;19932;-71
2023/09/16 09:42:48;;;;;;;;;;;40.30;26.30;;;;;;4995887;28;19933;-70
2023/09/16 09:45:14;;;;;;;;;;;40.30;25.80;;;;;;5028948;28;19917;-69
2023/09/16 09:47:40;;;;;;;;;;;40.10;25.30;;;;;;5022752;28;19922;-69
2023/09/16 09:50:07;;;;;;;;;;;40.00;25.50;;;;;;5015155;28;19936;-70
2023/09/16 09:52:34;;;;;;;;;;;39.90;25.80;;;;;;5011537;28;20283;-69
2023/09/16 09:55:00;;;;;;;;;;;39.90;26.10;;;;;;5017032;28;19925;-69
2023/09/16 09:57:27;;;;;;;;;;;40.00;26.10;;;;;;5024526;28;19913;-69
2023/09/16 09:59:52;;;;;;;;;;;40.20;25.90;;;;;;5014800;28;20665;-69
2023/09/16 10:02:18;;;;;;;;;;;40.30;25.50;;;;;;5017444;28;19914;-70
2023/09/16 10:04:43;;;;;;;;;;;40.20;25.20;;;;;;5010376;28;19971;-70
2023/09/16 10:07:09;;;;;;;;;;;40.10;25.40;;;;;;5013662;28;19924;-69
2023/09/16 10:09:34;;;;;;;;;;;40.20;25.40;;;;;;5012830;28;19917;-69
2023/09/16 10:12:00;;;;;;;;;;;40.30;25.40;;;;;;5013313;28;19959;-69
2023/09/16 10:14:26;;;;;;;;;;;40.30;25.20;;;;;;5008437;28;19953;-68
2023/09/16 10:16:52;;;;;;;;;;;40.30;25.40;;;;;;5013517;28;20352;-68
2023/09/16 10:19:17;;;;;;;;;;;40.30;25.60;;;;;;5013981;28;20055;-69
2023/09/16 10:21:44;;;;;;;;;;;40.40;25.70;;;;;;5012991;28;19920;-69
2023/09/16 10:24:10;;;;;;;;;;;40.40;25.70;;;;;;5006253;28;19913;-69
2023/09/16 10:26:35;;;;;;;;;;;40.50;25.90;;;;;;5011446;28;20216;-69
2023/09/16 10:29:02;;;;;;;;;;;40.50;25.50;;;;;;5010313;28;20241;-69
2023/09/16 10:31:28;;;;;;;;;;;40.30;25.50;;;;;;5011462;28;19920;-69
2023/09/16 10:33:53;;;;;;;;;;;40.20;25.40;;;;;;5005387;28;19917;-69
2023/09/16 10:36:20;;;;;;;;;;;40.20;25.20;;;;;;5011213;28;19917;-69
2023/09/16 10:38:46;;;;;;;;;;;40.10;25.40;;;;;;5011358;28;20415;-67
2023/09/16 10:41:13;;;;;;;;;;;40.00;25.40;;;;;;5009841;28;19920;-68
2023/09/16 10:43:38;;;;;;;;;;;39.80;25.40;;;;;;5005618;28;20008;-70
2023/09/16 10:46:04;;;;;;;;;;;39.70;25.60;;;;;;5009823;28;20412;-69
2023/09/16 10:48:30;;;;;;;;;;;39.50;25.80;;;;;;5009082;28;19918;-68
2023/09/16 10:50:58;;;;;;;;;;;39.50;26.20;;;;;;5009599;28;19972;-69
2023/09/16 10:53:26;;;;;;;;;;;39.50;26.40;;;;;;5001069;28;20612;-69
2023/09/16 10:55:58;;;;;;;;;;;39.60;26.10;;;;;;5011124;28;20369;-69
2023/09/16 10:58:33;;;;;;;;;;;39.60;26.20;;;;;;5009852;28;20263;-69
2023/09/16 11:00:59;;;;;;;;;;;39.70;26.30;;;;;;5010780;28;19965;-69
2023/09/16 11:03:37;;;;;;;;;;;39.80;26.30;;;;;;5003933;28;19920;-69
2023/09/16 11:06:02;;;;;;;;;;;39.80;26.20;;;;;;5008040;28;19924;-69
2023/09/16 11:08:28;;;;;;;;;;;39.80;26.40;;;;;;5012088;28;20388;-69
2023/09/16 11:10:56;;;;;;;;;;;39.80;26.20;;;;;;5013927;28;19917;-71
2023/09/16 11:13:23;;;;;;;;;;;39.60;25.70;;;;;;5005507;28;19914;-70
2023/09/16 11:15:48;;;;;;;;;;;39.30;26.10;;;;;;5010827;28;19914;-68
2023/09/16 11:18:16;;;;;;;;;;;39.10;26.50;;;;;;5009616;28;19923;-72
2023/09/16 11:20:42;;;;;;;;;;;38.90;26.80;;;;;;5011667;28;19913;-70
2023/09/16 11:23:07;;;;;;;;;;;38.70;27.00;;;;;;5005816;28;20044;-70
2023/09/16 11:25:34;;;;;;;;;;;38.60;27.00;;;;;;5009723;28;19917;-70
2023/09/16 11:28:00;;;;;;;;;;;38.40;27.10;;;;;;5009901;28;19974;-70
2023/09/16 11:30:26;;;;;;;;;;;38.40;27.30;;;;;;5014978;28;19921;-69
2023/09/16 11:32:54;;;;;;;;;;;38.30;27.40;;;;;;5009464;28;19929;-69
2023/09/16 11:35:20;;;;;;;;;;;38.10;27.30;;;;;;5012656;28;19984;-70
2023/09/16 11:37:45;;;;;;;;;;;38.00;27.70;;;;;;5015414;28;20344;-69
2023/09/16 11:40:11;;;;;;;;;;;38.00;27.80;;;;;;5014090;28;20325;-69
2023/09/16 11:42:36;;;;;;;;;;;38.00;28.10;;;;;;5013439;28;19921;-70
2023/09/16 11:45:02;;;;;;;;;;;38.20;28.00;;;;;;5015700;28;19921;-69
2023/09/16 11:47:30;;;;;;;;;;;38.30;27.40;;;;;;5018510;28;19925;-70
2023/09/16 11:49:55;;;;;;;;;;;38.30;27.40;;;;;;5019751;28;20388;-69
2023/09/16 11:52:21;;;;;;;;;;;38.40;27.20;;;;;;5016788;28;19917;-70
2023/09/16 11:54:49;;;;;;;;;;;38.50;26.90;;;;;;5013506;28;20333;-70
2023/09/16 11:57:16;;;;;;;;;;;38.40;26.80;;;;;;5018358;28;19909;-70
2023/09/16 11:59:41;;;;;;;;;;;38.40;26.60;;;;;;5016465;28;19918;-70
2023/09/16 12:02:07;;;;;;;;;;;38.10;26.50;;;;;;5016490;28;19914;-70
2023/09/16 12:04:34;;;;;;;;;;;37.90;26.90;;;;;;5010484;28;19979;-69
2023/09/16 12:07:00;;;;;;;;;;;37.80;27.10;;;;;;5015872;28;19909;-70
2023/09/16 12:09:27;;;;;;;;;;;37.60;27.30;;;;;;5016666;28;20027;-70
2023/09/16 12:11:53;;;;;;;;;;;37.40;27.30;;;;;;5016511;28;19917;-70
2023/09/16 12:14:18;;;;;;;;;;;37.20;27.80;;;;;;5012322;28;19917;-70
2023/09/16 12:16:44;;;;;;;;;;;37.10;28.20;;;;;;5015730;28;20368;-68
2023/09/16 12:19:09;;;;;;;;;;;37.00;28.10;;;;;;5015968;28;19918;-69
2023/09/16 12:21:35;;;;;;;;;;;36.80;27.90;;;;;;5030837;28;19917;-70
2023/09/16 12:24:00;;;;;;;;;;;36.70;28.00;;;;;;5014083;28;19988;-69
2023/09/16 12:26:26;;;;;;;;;;;36.60;28.20;;;;;;5016591;28;19914;-69
2023/09/16 12:28:52;;;;;;;;;;;36.40;28.40;;;;;;5016239;28;19936;-70
2023/09/16 12:31:21;;;;;;;;;;;36.30;28.70;;;;;;5014274;28;19913;-70
2023/09/16 12:33:49;;;;;;;;;;;36.00;28.90;;;;;;5009622;28;19929;-69
2023/09/16 12:36:15;;;;;;;;;;;35.80;29.10;;;;;;4996731;28;20009;-70
2023/09/16 12:38:41;;;;;;;;;;;35.70;29.30;;;;;;5004043;28;19917;-70
2023/09/16 12:41:07;;;;;;;;;;;35.60;29.30;;;;;;5015359;28;19983;-70
2023/09/16 12:43:33;;;;;;;;;;;35.30;29.50;;;;;;5010928;28;19921;-70
2023/09/16 12:46:00;;;;;;;;;;;35.20;30.00;;;;;;5016277;28;19918;-70
2023/09/16 12:48:26;;;;;;;;;;;35.10;30.40;;;;;;5019804;28;20369;-70
2023/09/16 12:50:52;;;;;;;;;;;35.10;30.40;;;;;;5015455;28;20320;-70
2023/09/16 12:53:18;;;;;;;;;;;34.90;30.20;;;;;;5010800;28;20384;-70
2023/09/16 12:55:46;;;;;;;;;;;34.80;30.60;;;;;;5015934;28;19917;-70
2023/09/16 12:58:14;;;;;;;;;;;34.70;30.80;;;;;;5015141;28;20032;-71
2023/09/16 13:00:39;;;;;;;;;;;34.70;30.70;;;;;;5014247;28;19967;-70
2023/09/16 13:03:08;;;;;;;;;;;34.70;30.60;;;;;;5009902;28;19913;-70
2023/09/16 13:05:35;;;;;;;;;;;34.60;30.30;;;;;;5013493;28;19940;-69
2023/09/16 13:08:01;;;;;;;;;;;34.50;30.30;;;;;;5015233;28;19944;-70
2023/09/16 13:10:28;;;;;;;;;;;34.30;30.60;;;;;;5015675;28;19917;-70
2023/09/16 13:12:55;;;;;;;;;;;34.20;30.80;;;;;;5013024;28;19922;-70
2023/09/16 13:15:21;;;;;;;;;;;34.10;30.90;;;;;;5014018;28;19920;-70
2023/09/16 13:17:49;;;;;;;;;;;34.00;31.30;;;;;;5014305;28;19913;-67
2023/09/16 13:20:15;;;;;;;;;;;34.00;31.40;;;;;;5011907;28;19921;-68
2023/09/16 13:22:44;;;;;;;;;;;34.00;31.50;;;;;;5009047;28;20373;-70
2023/09/16 13:25:28;;;;;;;;;;;33.90;31.60;;;;;;5013919;28;19921;-70
2023/09/16 13:27:54;;;;;;;;;;;33.80;31.50;;;;;;5016326;28;19922;-69
2023/09/16 13:30:20;;;;;;;;;;;33.60;31.70;;;;;;5015281;28;19926;-69
2023/09/16 13:32:52;;;;;;;;;;;33.40;31.80;;;;;;5013241;28;19921;-69
2023/09/16 13:35:18;;;;;;;;;;;33.30;32.00;;;;;;5014594;28;19914;-69
2023/09/16 13:37:44;;;;;;;;;;;33.10;32.40;;;;;;5016026;28;19914;-69
2023/09/16 13:40:10;;;;;;;;;;;32.90;32.60;;;;;;5016299;28;19969;-69
2023/09/16 13:42:36;;;;;;;;;;;32.80;33.00;;;;;;5012145;28;20297;-70
2023/09/16 13:45:02;;;;;;;;;;;32.70;33.00;;;;;;5013903;28;19924;-69
2023/09/16 13:47:28;;;;;;;;;;;32.70;33.20;;;;;;5014982;28;19985;-70
2023/09/16 13:49:53;;;;;;;;;;;32.50;33.20;;;;;;5013716;28;20033;-69
2023/09/16 13:52:19;;;;;;;;;;;32.30;33.40;;;;;;5013231;28;20422;-70
2023/09/16 13:54:45;;;;;;;;;;;32.30;33.90;;;;;;5011650;28;19921;-70
2023/09/16 13:57:12;;;;;;;;;;;32.10;34.00;;;;;;5015328;28;20013;-68
2023/09/16 13:59:38;;;;;;;;;;;32.10;34.20;;;;;;5009078;28;19983;-68
2023/09/16 14:02:03;;;;;;;;;;;32.00;34.30;;;;;;5013267;28;19921;-69
2023/09/16 14:04:29;;;;;;;;;;;31.90;34.70;;;;;;5006118;28;19963;-68
2023/09/16 14:06:54;;;;;;;;;;;31.90;34.80;;;;;;5014419;28;20820;-68
2023/09/16 14:09:19;;;;;;;;;;;31.80;34.90;;;;;;5011214;28;20383;-69
2023/09/16 14:11:45;;;;;;;;;;;31.80;35.10;;;;;;5011991;28;19917;-68
2023/09/16 14:14:10;;;;;;;;;;;31.80;35.40;;;;;;5006792;28;19918;-68
2023/09/16 14:16:36;;;;;;;;;;;31.70;35.50;;;;;;5011789;28;20383;-68
2023/09/16 14:19:01;;;;;;;;;;;31.80;35.60;;;;;;5011179;28;19943;-68